Decoded Metar for GQPP (NOUADHIBOU in MAURITANIA) (IATA:NDB) | Meteo·Mobile Aviation Weather
aviador You're here:

GQPP Decoded Metar

NOUADHIBOU in MAURITANIA
Report Time2018-11-19 02:00:00
UTC Time2018-11-19 02:38:23
Flight Rules mvfr MVFR
Wind350° at 04 kt
W.Decomp.*RWY 02: 3.7 kt HW 1.6 kt LCW
W.Rank350° ranks 3
Current wind is below 350° avg. (13.7)
Visibility6000 m
Phenomena:N/A
Clouds:Few 005 Hf
Expected CloudBase > 800 ft AGL from Temp-Dew spread
CeilingNone
Temp19°C (ISA +4)
Dew Point17°C (88% RH)
QNH1014 hPa
Density Alt705 ft
Elevation10 ft
Report Wrong Elevation
Raw Report
METAR GQPP 190200Z 35004KT 6000 FEW005 19/17 Q1014 TEMPO 4000 BR=

Extra information for GQPP:More info

Metar Taf Metar & Taf Last 4 Metars F.Rules Stats Wind Profile Meteogram Temp Stats Airport Information Weather charts Add Link Nearby VenuesMetar ALERT Operation Metar Decoded Social comments